sensor_id;sensor_type;location;lat;lon;timestamp;P1;durP1;ratioP1;P2;durP2;ratioP2
13969;SDS011;7057;49.984;8.404;2022-10-29T00:01:18;10.87;;;7.87;;
13969;SDS011;7057;49.984;8.404;2022-10-29T00:03:46;16.40;;;8.50;;
13969;SDS011;7057;49.984;8.404;2022-10-29T00:06:13;13.33;;;8.50;;
13969;SDS011;7057;49.984;8.404;2022-10-29T00:08:41;19.50;;;10.40;;
13969;SDS011;7057;49.984;8.404;2022-10-29T00:11:09;16.33;;;10.10;;
13969;SDS011;7057;49.984;8.404;2022-10-29T00:13:37;22.10;;;11.07;;
13969;SDS011;7057;49.984;8.404;2022-10-29T00:16:07;22.07;;;11.83;;
13969;SDS011;7057;49.984;8.404;2022-10-29T00:18:35;21.20;;;10.33;;
13969;SDS011;7057;49.984;8.404;2022-10-29T00:21:03;16.00;;;9.40;;
13969;SDS011;7057;49.984;8.404;2022-10-29T00:23:32;17.00;;;9.50;;
13969;SDS011;7057;49.984;8.404;2022-10-29T00:25:59;16.47;;;9.00;;
13969;SDS011;7057;49.984;8.404;2022-10-29T00:28:27;17.43;;;9.53;;
13969;SDS011;7057;49.984;8.404;2022-10-29T00:30:55;14.87;;;9.73;;
13969;SDS011;7057;49.984;8.404;2022-10-29T00:33:24;16.97;;;9.00;;
13969;SDS011;7057;49.984;8.404;2022-10-29T00:35:54;16.33;;;8.97;;
13969;SDS011;7057;49.984;8.404;2022-10-29T00:38:22;17.90;;;9.67;;
13969;SDS011;7057;49.984;8.404;2022-10-29T00:40:50;17.20;;;9.47;;
13969;SDS011;7057;49.984;8.404;2022-10-29T00:43:19;13.30;;;8.63;;
13969;SDS011;7057;49.984;8.404;2022-10-29T00:45:48;17.70;;;9.63;;
13969;SDS011;7057;49.984;8.404;2022-10-29T00:48:19;15.13;;;9.33;;
13969;SDS011;7057;49.984;8.404;2022-10-29T00:50:50;15.90;;;8.87;;
13969;SDS011;7057;49.984;8.404;2022-10-29T00:53:20;19.37;;;9.00;;
13969;SDS011;7057;49.984;8.404;2022-10-29T00:55:50;13.77;;;8.03;;
13969;SDS011;7057;49.984;8.404;2022-10-29T00:58:17;13.07;;;9.57;;
13969;SDS011;7057;49.984;8.404;2022-10-29T01:00:45;21.33;;;10.00;;
13969;SDS011;7057;49.984;8.404;2022-10-29T01:03:12;19.83;;;9.40;;
13969;SDS011;7057;49.984;8.404;2022-10-29T01:05:39;21.83;;;9.70;;
13969;SDS011;7057;49.984;8.404;2022-10-29T01:08:08;14.87;;;9.20;;
13969;SDS011;7057;49.984;8.404;2022-10-29T01:10:39;18.40;;;8.80;;
13969;SDS011;7057;49.984;8.404;2022-10-29T01:13:18;12.87;;;9.00;;
13969;SDS011;7057;49.984;8.404;2022-10-29T01:16:00;12.77;;;8.10;;
13969;SDS011;7057;49.984;8.404;2022-10-29T01:18:35;12.17;;;7.97;;
13969;SDS011;7057;49.984;8.404;2022-10-29T01:24:22;12.77;;;8.47;;
13969;SDS011;7057;49.984;8.404;2022-10-29T01:30:12;16.77;;;8.60;;
13969;SDS011;7057;49.984;8.404;2022-10-29T01:33:02;12.87;;;7.97;;
13969;SDS011;7057;49.984;8.404;2022-10-29T01:35:39;15.13;;;8.80;;
13969;SDS011;7057;49.984;8.404;2022-10-29T01:38:23;16.13;;;8.80;;
13969;SDS011;7057;49.984;8.404;2022-10-29T01:40:59;15.73;;;9.30;;
13969;SDS011;7057;49.984;8.404;2022-10-29T01:43:32;16.17;;;10.57;;
13969;SDS011;7057;49.984;8.404;2022-10-29T01:46:04;17.70;;;10.80;;
13969;SDS011;7057;49.984;8.404;2022-10-29T01:48:38;19.37;;;10.27;;
13969;SDS011;7057;49.984;8.404;2022-10-29T01:51:11;28.50;;;10.67;;
13969;SDS011;7057;49.984;8.404;2022-10-29T01:53:43;20.57;;;10.07;;
13969;SDS011;7057;49.984;8.404;2022-10-29T01:56:11;17.83;;;9.70;;
13969;SDS011;7057;49.984;8.404;2022-10-29T01:58:38;18.07;;;8.87;;
13969;SDS011;7057;49.984;8.404;2022-10-29T02:01:14;13.50;;;9.50;;
13969;SDS011;7057;49.984;8.404;2022-10-29T02:03:56;19.27;;;9.43;;
13969;SDS011;7057;49.984;8.404;2022-10-29T02:06:32;14.00;;;8.80;;
13969;SDS011;7057;49.984;8.404;2022-10-29T02:09:08;14.27;;;8.83;;
13969;SDS011;7057;49.984;8.404;2022-10-29T02:11:43;12.33;;;8.07;;
13969;SDS011;7057;49.984;8.404;2022-10-29T02:14:19;14.53;;;8.80;;
13969;SDS011;7057;49.984;8.404;2022-10-29T02:16:51;17.07;;;8.50;;
13969;SDS011;7057;49.984;8.404;2022-10-29T02:19:21;14.47;;;9.13;;
13969;SDS011;7057;49.984;8.404;2022-10-29T02:21:49;23.77;;;10.07;;
13969;SDS011;7057;49.984;8.404;2022-10-29T02:24:16;14.80;;;8.37;;
13969;SDS011;7057;49.984;8.404;2022-10-29T02:26:43;20.37;;;8.90;;
13969;SDS011;7057;49.984;8.404;2022-10-29T02:29:10;12.00;;;7.57;;
13969;SDS011;7057;49.984;8.404;2022-10-29T02:31:37;18.37;;;8.37;;
13969;SDS011;7057;49.984;8.404;2022-10-29T02:34:05;13.57;;;8.93;;
13969;SDS011;7057;49.984;8.404;2022-10-29T02:36:33;12.90;;;7.70;;
13969;SDS011;7057;49.984;8.404;2022-10-29T02:39:00;15.43;;;8.80;;
13969;SDS011;7057;49.984;8.404;2022-10-29T02:41:28;14.60;;;8.03;;
13969;SDS011;7057;49.984;8.404;2022-10-29T02:43:55;12.67;;;8.17;;
13969;SDS011;7057;49.984;8.404;2022-10-29T02:46:22;15.27;;;7.70;;
13969;SDS011;7057;49.984;8.404;2022-10-29T02:48:50;13.53;;;8.17;;
13969;SDS011;7057;49.984;8.404;2022-10-29T02:51:17;11.87;;;8.23;;
13969;SDS011;7057;49.984;8.404;2022-10-29T02:53:46;12.67;;;8.40;;
13969;SDS011;7057;49.984;8.404;2022-10-29T02:56:13;17.23;;;8.37;;
13969;SDS011;7057;49.984;8.404;2022-10-29T02:58:40;14.90;;;8.87;;
13969;SDS011;7057;49.984;8.404;2022-10-29T03:01:07;13.30;;;8.90;;
13969;SDS011;7057;49.984;8.404;2022-10-29T03:03:34;16.27;;;8.03;;
13969;SDS011;7057;49.984;8.404;2022-10-29T03:06:02;14.00;;;8.17;;
13969;SDS011;7057;49.984;8.404;2022-10-29T03:08:29;12.90;;;8.30;;
13969;SDS011;7057;49.984;8.404;2022-10-29T03:10:58;16.83;;;8.13;;
13969;SDS011;7057;49.984;8.404;2022-10-29T03:13:25;16.20;;;8.73;;
13969;SDS011;7057;49.984;8.404;2022-10-29T03:15:52;17.53;;;9.27;;
13969;SDS011;7057;49.984;8.404;2022-10-29T03:18:19;13.20;;;8.60;;
13969;SDS011;7057;49.984;8.404;2022-10-29T03:20:46;14.13;;;8.67;;
13969;SDS011;7057;49.984;8.404;2022-10-29T03:23:14;12.07;;;7.20;;
13969;SDS011;7057;49.984;8.404;2022-10-29T03:25:41;11.93;;;7.37;;
13969;SDS011;7057;49.984;8.404;2022-10-29T03:28:09;13.57;;;6.87;;
13969;SDS011;7057;49.984;8.404;2022-10-29T03:30:37;16.00;;;7.83;;
13969;SDS011;7057;49.984;8.404;2022-10-29T03:33:04;14.03;;;7.90;;
13969;SDS011;7057;49.984;8.404;2022-10-29T03:35:31;11.23;;;7.80;;
13969;SDS011;7057;49.984;8.404;2022-10-29T03:37:58;11.17;;;7.20;;
13969;SDS011;7057;49.984;8.404;2022-10-29T03:40:25;13.00;;;7.47;;
13969;SDS011;7057;49.984;8.404;2022-10-29T03:42:52;12.47;;;7.20;;
13969;SDS011;7057;49.984;8.404;2022-10-29T03:45:21;19.73;;;8.90;;
13969;SDS011;7057;49.984;8.404;2022-10-29T03:47:48;10.57;;;7.53;;
13969;SDS011;7057;49.984;8.404;2022-10-29T03:50:16;14.93;;;8.07;;
13969;SDS011;7057;49.984;8.404;2022-10-29T03:52:43;12.77;;;7.40;;
13969;SDS011;7057;49.984;8.404;2022-10-29T03:55:10;16.17;;;7.97;;
13969;SDS011;7057;49.984;8.404;2022-10-29T03:57:37;12.77;;;7.10;;
13969;SDS011;7057;49.984;8.404;2022-10-29T04:00:05;10.83;;;7.43;;
13969;SDS011;7057;49.984;8.404;2022-10-29T04:02:34;12.77;;;8.13;;
13969;SDS011;7057;49.984;8.404;2022-10-29T04:05:01;10.80;;;7.67;;
13969;SDS011;7057;49.984;8.404;2022-10-29T04:07:29;13.67;;;7.80;;
13969;SDS011;7057;49.984;8.404;2022-10-29T04:09:56;14.37;;;7.87;;
13969;SDS011;7057;49.984;8.404;2022-10-29T04:12:23;13.20;;;8.00;;
13969;SDS011;7057;49.984;8.404;2022-10-29T04:14:50;16.13;;;8.20;;
13969;SDS011;7057;49.984;8.404;2022-10-29T04:17:17;12.97;;;7.67;;
13969;SDS011;7057;49.984;8.404;2022-10-29T04:19:46;16.27;;;7.13;;
13969;SDS011;7057;49.984;8.404;2022-10-29T04:22:13;14.95;;;8.60;;
13969;SDS011;7057;49.984;8.404;2022-10-29T04:24:40;13.93;;;8.00;;
13969;SDS011;7057;49.984;8.404;2022-10-29T04:27:07;12.63;;;7.23;;
13969;SDS011;7057;49.984;8.404;2022-10-29T04:29:35;18.73;;;7.97;;
13969;SDS011;7057;49.984;8.404;2022-10-29T04:32:02;11.37;;;7.87;;
13969;SDS011;7057;49.984;8.404;2022-10-29T04:34:29;14.70;;;8.00;;
13969;SDS011;7057;49.984;8.404;2022-10-29T04:36:58;11.97;;;6.87;;
13969;SDS011;7057;49.984;8.404;2022-10-29T04:39:25;14.20;;;8.20;;
13969;SDS011;7057;49.984;8.404;2022-10-29T04:41:52;13.70;;;7.70;;
13969;SDS011;7057;49.984;8.404;2022-10-29T04:44:19;12.87;;;7.70;;
13969;SDS011;7057;49.984;8.404;2022-10-29T04:46:47;11.57;;;7.43;;
13969;SDS011;7057;49.984;8.404;2022-10-29T04:49:14;16.43;;;7.33;;
13969;SDS011;7057;49.984;8.404;2022-10-29T04:51:41;11.60;;;6.90;;
13969;SDS011;7057;49.984;8.404;2022-10-29T04:54:10;12.23;;;7.73;;
13969;SDS011;7057;49.984;8.404;2022-10-29T04:56:37;13.10;;;7.93;;
13969;SDS011;7057;49.984;8.404;2022-10-29T04:59:04;13.37;;;8.37;;
13969;SDS011;7057;49.984;8.404;2022-10-29T05:01:31;12.15;;;8.15;;
13969;SDS011;7057;49.984;8.404;2022-10-29T05:03:59;17.07;;;7.77;;
13969;SDS011;7057;49.984;8.404;2022-10-29T05:06:26;9.10;;;7.40;;
13969;SDS011;7057;49.984;8.404;2022-10-29T05:08:53;10.23;;;6.80;;
13969;SDS011;7057;49.984;8.404;2022-10-29T05:11:21;7.87;;;6.70;;
13969;SDS011;7057;49.984;8.404;2022-10-29T05:13:49;12.27;;;8.20;;
13969;SDS011;7057;49.984;8.404;2022-10-29T05:16:16;11.53;;;7.83;;
13969;SDS011;7057;49.984;8.404;2022-10-29T05:18:43;11.13;;;6.83;;
13969;SDS011;7057;49.984;8.404;2022-10-29T05:21:10;11.70;;;7.03;;
13969;SDS011;7057;49.984;8.404;2022-10-29T05:23:37;10.17;;;7.63;;
13969;SDS011;7057;49.984;8.404;2022-10-29T05:26:05;14.80;;;7.87;;
13969;SDS011;7057;49.984;8.404;2022-10-29T05:28:33;16.40;;;8.40;;
13969;SDS011;7057;49.984;8.404;2022-10-29T05:31:00;12.27;;;7.17;;
13969;SDS011;7057;49.984;8.404;2022-10-29T05:33:28;15.07;;;7.43;;
13969;SDS011;7057;49.984;8.404;2022-10-29T05:35:55;9.53;;;7.13;;
13969;SDS011;7057;49.984;8.404;2022-10-29T05:38:24;11.27;;;7.20;;
13969;SDS011;7057;49.984;8.404;2022-10-29T05:40:51;16.37;;;7.77;;
13969;SDS011;7057;49.984;8.404;2022-10-29T05:43:18;15.80;;;7.73;;
13969;SDS011;7057;49.984;8.404;2022-10-29T05:45:47;11.07;;;7.13;;
13969;SDS011;7057;49.984;8.404;2022-10-29T05:48:14;12.03;;;6.67;;
13969;SDS011;7057;49.984;8.404;2022-10-29T05:50:41;13.57;;;7.13;;
13969;SDS011;7057;49.984;8.404;2022-10-29T05:53:09;13.07;;;6.93;;
13969;SDS011;7057;49.984;8.404;2022-10-29T05:55:39;13.43;;;7.30;;
13969;SDS011;7057;49.984;8.404;2022-10-29T05:58:08;13.57;;;7.50;;
13969;SDS011;7057;49.984;8.404;2022-10-29T06:00:38;11.30;;;7.57;;
13969;SDS011;7057;49.984;8.404;2022-10-29T06:03:10;11.67;;;7.33;;
13969;SDS011;7057;49.984;8.404;2022-10-29T06:05:38;14.23;;;7.80;;
13969;SDS011;7057;49.984;8.404;2022-10-29T06:08:06;12.67;;;7.00;;
13969;SDS011;7057;49.984;8.404;2022-10-29T06:10:33;13.83;;;7.37;;
13969;SDS011;7057;49.984;8.404;2022-10-29T06:13:00;9.77;;;7.70;;
13969;SDS011;7057;49.984;8.404;2022-10-29T06:15:28;11.80;;;7.83;;
13969;SDS011;7057;49.984;8.404;2022-10-29T06:17:55;14.23;;;8.00;;
13969;SDS011;7057;49.984;8.404;2022-10-29T06:20:23;12.47;;;7.53;;
13969;SDS011;7057;49.984;8.404;2022-10-29T06:22:54;11.07;;;7.60;;
13969;SDS011;7057;49.984;8.404;2022-10-29T06:25:22;13.40;;;7.00;;
13969;SDS011;7057;49.984;8.404;2022-10-29T06:27:56;10.67;;;8.07;;
13969;SDS011;7057;49.984;8.404;2022-10-29T06:30:24;15.67;;;8.87;;
13969;SDS011;7057;49.984;8.404;2022-10-29T06:32:51;12.70;;;8.67;;
13969;SDS011;7057;49.984;8.404;2022-10-29T06:35:19;13.90;;;7.70;;
13969;SDS011;7057;49.984;8.404;2022-10-29T06:37:47;13.30;;;7.93;;
13969;SDS011;7057;49.984;8.404;2022-10-29T06:40:15;14.30;;;8.67;;
13969;SDS011;7057;49.984;8.404;2022-10-29T06:42:42;13.03;;;8.13;;
13969;SDS011;7057;49.984;8.404;2022-10-29T06:45:09;17.77;;;8.47;;
13969;SDS011;7057;49.984;8.404;2022-10-29T06:47:37;14.17;;;8.17;;
13969;SDS011;7057;49.984;8.404;2022-10-29T06:50:06;12.43;;;8.27;;
13969;SDS011;7057;49.984;8.404;2022-10-29T06:52:34;16.07;;;8.80;;
13969;SDS011;7057;49.984;8.404;2022-10-29T06:55:03;16.83;;;8.53;;
13969;SDS011;7057;49.984;8.404;2022-10-29T06:57:31;16.37;;;8.77;;
13969;SDS011;7057;49.984;8.404;2022-10-29T06:59:58;15.30;;;8.73;;
13969;SDS011;7057;49.984;8.404;2022-10-29T07:02:26;14.03;;;8.83;;
13969;SDS011;7057;49.984;8.404;2022-10-29T07:04:53;12.70;;;8.10;;
13969;SDS011;7057;49.984;8.404;2022-10-29T07:07:20;12.33;;;8.20;;
13969;SDS011;7057;49.984;8.404;2022-10-29T07:09:47;14.82;;;8.77;;
13969;SDS011;7057;49.984;8.404;2022-10-29T07:12:16;12.10;;;8.83;;
13969;SDS011;7057;49.984;8.404;2022-10-29T07:14:43;17.93;;;8.20;;
13969;SDS011;7057;49.984;8.404;2022-10-29T07:17:10;13.23;;;7.50;;
13969;SDS011;7057;49.984;8.404;2022-10-29T07:19:37;16.20;;;8.90;;
13969;SDS011;7057;49.984;8.404;2022-10-29T07:22:04;12.35;;;8.57;;
13969;SDS011;7057;49.984;8.404;2022-10-29T07:24:32;13.48;;;8.13;;
13969;SDS011;7057;49.984;8.404;2022-10-29T07:26:59;14.93;;;9.20;;
13969;SDS011;7057;49.984;8.404;2022-10-29T07:29:28;10.97;;;7.70;;
13969;SDS011;7057;49.984;8.404;2022-10-29T07:31:55;15.30;;;8.07;;
13969;SDS011;7057;49.984;8.404;2022-10-29T07:34:23;13.37;;;7.97;;
13969;SDS011;7057;49.984;8.404;2022-10-29T07:36:50;14.13;;;8.20;;
13969;SDS011;7057;49.984;8.404;2022-10-29T07:39:17;12.47;;;7.73;;
13969;SDS011;7057;49.984;8.404;2022-10-29T07:41:44;10.73;;;7.53;;
13969;SDS011;7057;49.984;8.404;2022-10-29T07:44:11;12.77;;;8.03;;
13969;SDS011;7057;49.984;8.404;2022-10-29T07:46:40;12.67;;;7.50;;
13969;SDS011;7057;49.984;8.404;2022-10-29T07:49:07;9.43;;;7.33;;
13969;SDS011;7057;49.984;8.404;2022-10-29T07:51:34;19.53;;;8.87;;
13969;SDS011;7057;49.984;8.404;2022-10-29T07:54:01;17.20;;;8.17;;
13969;SDS011;7057;49.984;8.404;2022-10-29T07:56:29;15.70;;;8.47;;
13969;SDS011;7057;49.984;8.404;2022-10-29T07:58:56;16.73;;;9.43;;
13969;SDS011;7057;49.984;8.404;2022-10-29T08:01:23;17.13;;;8.17;;
13969;SDS011;7057;49.984;8.404;2022-10-29T08:03:52;13.37;;;8.30;;
13969;SDS011;7057;49.984;8.404;2022-10-29T08:06:19;15.00;;;8.10;;
13969;SDS011;7057;49.984;8.404;2022-10-29T08:08:46;15.87;;;7.70;;
13969;SDS011;7057;49.984;8.404;2022-10-29T08:11:13;16.33;;;8.63;;
13969;SDS011;7057;49.984;8.404;2022-10-29T08:13:40;15.50;;;7.60;;
13969;SDS011;7057;49.984;8.404;2022-10-29T08:16:07;13.48;;;8.10;;
13969;SDS011;7057;49.984;8.404;2022-10-29T08:18:34;11.07;;;6.97;;
13969;SDS011;7057;49.984;8.404;2022-10-29T08:21:04;16.73;;;9.07;;
13969;SDS011;7057;49.984;8.404;2022-10-29T08:23:31;17.67;;;7.80;;
13969;SDS011;7057;49.984;8.404;2022-10-29T08:25:58;17.43;;;7.77;;
13969;SDS011;7057;49.984;8.404;2022-10-29T08:28:25;13.47;;;8.03;;
13969;SDS011;7057;49.984;8.404;2022-10-29T08:30:53;13.43;;;8.80;;
13969;SDS011;7057;49.984;8.404;2022-10-29T08:33:20;15.13;;;8.20;;
13969;SDS011;7057;49.984;8.404;2022-10-29T08:35:47;11.47;;;7.57;;
13969;SDS011;7057;49.984;8.404;2022-10-29T08:38:16;14.47;;;7.67;;
13969;SDS011;7057;49.984;8.404;2022-10-29T08:40:47;10.67;;;7.23;;
13969;SDS011;7057;49.984;8.404;2022-10-29T08:43:28;15.63;;;7.90;;
13969;SDS011;7057;49.984;8.404;2022-10-29T08:46:15;15.13;;;7.40;;
13969;SDS011;7057;49.984;8.404;2022-10-29T08:48:46;15.80;;;8.10;;
13969;SDS011;7057;49.984;8.404;2022-10-29T08:51:19;15.17;;;8.47;;
13969;SDS011;7057;49.984;8.404;2022-10-29T08:53:51;17.97;;;8.50;;
13969;SDS011;7057;49.984;8.404;2022-10-29T08:56:20;13.97;;;8.57;;
13969;SDS011;7057;49.984;8.404;2022-10-29T08:58:53;21.57;;;8.40;;
13969;SDS011;7057;49.984;8.404;2022-10-29T09:01:23;17.97;;;8.37;;
13969;SDS011;7057;49.984;8.404;2022-10-29T09:03:51;11.23;;;6.90;;
13969;SDS011;7057;49.984;8.404;2022-10-29T09:06:21;15.30;;;8.03;;
13969;SDS011;7057;49.984;8.404;2022-10-29T09:09:07;14.87;;;7.90;;
13969;SDS011;7057;49.984;8.404;2022-10-29T09:11:43;18.37;;;8.00;;
13969;SDS011;7057;49.984;8.404;2022-10-29T09:14:24;10.97;;;6.57;;
13969;SDS011;7057;49.984;8.404;2022-10-29T09:17:03;11.53;;;7.53;;
13969;SDS011;7057;49.984;8.404;2022-10-29T09:19:49;11.63;;;6.97;;
13969;SDS011;7057;49.984;8.404;2022-10-29T09:22:29;13.20;;;7.30;;
13969;SDS011;7057;49.984;8.404;2022-10-29T09:25:05;14.97;;;7.97;;
13969;SDS011;7057;49.984;8.404;2022-10-29T09:27:41;14.67;;;7.20;;
13969;SDS011;7057;49.984;8.404;2022-10-29T09:30:18;12.30;;;7.57;;
13969;SDS011;7057;49.984;8.404;2022-10-29T09:32:49;15.50;;;8.03;;
13969;SDS011;7057;49.984;8.404;2022-10-29T09:35:30;11.93;;;7.80;;
13969;SDS011;7057;49.984;8.404;2022-10-29T09:38:07;8.77;;;6.57;;
13969;SDS011;7057;49.984;8.404;2022-10-29T09:40:43;13.87;;;7.50;;
13969;SDS011;7057;49.984;8.404;2022-10-29T09:43:14;11.63;;;7.27;;
13969;SDS011;7057;49.984;8.404;2022-10-29T09:45:52;12.73;;;7.10;;
13969;SDS011;7057;49.984;8.404;2022-10-29T09:48:24;10.40;;;6.90;;
13969;SDS011;7057;49.984;8.404;2022-10-29T09:50:56;12.87;;;6.53;;
13969;SDS011;7057;49.984;8.404;2022-10-29T09:53:31;11.87;;;7.00;;
13969;SDS011;7057;49.984;8.404;2022-10-29T09:55:59;16.43;;;7.80;;
13969;SDS011;7057;49.984;8.404;2022-10-29T09:58:27;12.13;;;6.90;;
13969;SDS011;7057;49.984;8.404;2022-10-29T10:00:54;11.33;;;6.70;;
13969;SDS011;7057;49.984;8.404;2022-10-29T10:03:24;16.63;;;7.47;;
13969;SDS011;7057;49.984;8.404;2022-10-29T10:05:56;9.73;;;6.40;;
13969;SDS011;7057;49.984;8.404;2022-10-29T10:08:25;9.73;;;6.50;;
13969;SDS011;7057;49.984;8.404;2022-10-29T10:10:53;11.80;;;7.13;;
13969;SDS011;7057;49.984;8.404;2022-10-29T10:13:23;10.30;;;6.03;;
13969;SDS011;7057;49.984;8.404;2022-10-29T10:15:53;11.03;;;6.50;;
13969;SDS011;7057;49.984;8.404;2022-10-29T10:18:23;11.17;;;7.20;;
13969;SDS011;7057;49.984;8.404;2022-10-29T10:21:02;12.17;;;7.17;;
13969;SDS011;7057;49.984;8.404;2022-10-29T10:23:41;10.17;;;7.03;;
13969;SDS011;7057;49.984;8.404;2022-10-29T10:29:03;9.40;;;6.10;;
13969;SDS011;7057;49.984;8.404;2022-10-29T10:31:35;8.73;;;6.33;;
13969;SDS011;7057;49.984;8.404;2022-10-29T10:34:06;9.10;;;6.40;;
13969;SDS011;7057;49.984;8.404;2022-10-29T10:36:39;14.67;;;6.40;;
13969;SDS011;7057;49.984;8.404;2022-10-29T10:39:16;10.33;;;5.90;;
13969;SDS011;7057;49.984;8.404;2022-10-29T10:41:56;9.57;;;5.60;;
13969;SDS011;7057;49.984;8.404;2022-10-29T10:44:27;9.07;;;6.00;;
13969;SDS011;7057;49.984;8.404;2022-10-29T10:46:55;12.87;;;6.07;;
13969;SDS011;7057;49.984;8.404;2022-10-29T10:49:28;12.40;;;6.80;;
13969;SDS011;7057;49.984;8.404;2022-10-29T10:51:57;16.23;;;6.53;;
13969;SDS011;7057;49.984;8.404;2022-10-29T10:54:30;14.67;;;6.50;;
13969;SDS011;7057;49.984;8.404;2022-10-29T10:57:02;10.77;;;6.50;;
13969;SDS011;7057;49.984;8.404;2022-10-29T10:59:43;10.60;;;6.07;;
13969;SDS011;7057;49.984;8.404;2022-10-29T11:02:20;11.17;;;7.10;;
13969;SDS011;7057;49.984;8.404;2022-10-29T11:04:54;17.77;;;7.10;;
13969;SDS011;7057;49.984;8.404;2022-10-29T11:07:26;16.27;;;7.13;;
13969;SDS011;7057;49.984;8.404;2022-10-29T11:09:58;16.03;;;6.60;;
13969;SDS011;7057;49.984;8.404;2022-10-29T11:12:29;10.70;;;6.40;;
13969;SDS011;7057;49.984;8.404;2022-10-29T11:15:04;15.70;;;6.50;;
13969;SDS011;7057;49.984;8.404;2022-10-29T11:17:37;10.57;;;5.90;;
13969;SDS011;7057;49.984;8.404;2022-10-29T11:20:12;10.37;;;6.13;;
13969;SDS011;7057;49.984;8.404;2022-10-29T11:22:47;16.13;;;6.87;;
13969;SDS011;7057;49.984;8.404;2022-10-29T11:25:20;11.27;;;5.87;;
13969;SDS011;7057;49.984;8.404;2022-10-29T11:27:52;14.30;;;6.30;;
13969;SDS011;7057;49.984;8.404;2022-10-29T11:30:26;11.70;;;6.60;;
13969;SDS011;7057;49.984;8.404;2022-10-29T11:32:57;16.13;;;6.90;;
13969;SDS011;7057;49.984;8.404;2022-10-29T11:35:36;11.90;;;6.40;;
13969;SDS011;7057;49.984;8.404;2022-10-29T11:38:08;10.53;;;6.17;;
13969;SDS011;7057;49.984;8.404;2022-10-29T11:40:41;13.80;;;6.90;;
13969;SDS011;7057;49.984;8.404;2022-10-29T11:43:13;10.47;;;6.47;;
13969;SDS011;7057;49.984;8.404;2022-10-29T11:45:51;8.67;;;6.10;;
13969;SDS011;7057;49.984;8.404;2022-10-29T11:48:27;12.33;;;6.23;;
13969;SDS011;7057;49.984;8.404;2022-10-29T11:51:03;14.27;;;6.63;;
13969;SDS011;7057;49.984;8.404;2022-10-29T11:53:50;12.93;;;7.10;;
13969;SDS011;7057;49.984;8.404;2022-10-29T11:56:24;13.40;;;6.60;;
13969;SDS011;7057;49.984;8.404;2022-10-29T11:59:06;10.20;;;6.67;;
13969;SDS011;7057;49.984;8.404;2022-10-29T12:01:43;10.60;;;5.90;;
13969;SDS011;7057;49.984;8.404;2022-10-29T12:04:23;10.70;;;6.03;;
13969;SDS011;7057;49.984;8.404;2022-10-29T12:06:58;8.90;;;5.60;;
13969;SDS011;7057;49.984;8.404;2022-10-29T12:09:43;10.30;;;6.43;;
13969;SDS011;7057;49.984;8.404;2022-10-29T12:12:37;12.20;;;6.63;;
13969;SDS011;7057;49.984;8.404;2022-10-29T12:15:16;11.00;;;6.20;;
13969;SDS011;7057;49.984;8.404;2022-10-29T12:17:50;12.10;;;6.33;;
13969;SDS011;7057;49.984;8.404;2022-10-29T12:20:26;13.27;;;6.80;;
13969;SDS011;7057;49.984;8.404;2022-10-29T12:23:00;9.40;;;6.00;;
13969;SDS011;7057;49.984;8.404;2022-10-29T12:25:35;11.50;;;7.07;;
13969;SDS011;7057;49.984;8.404;2022-10-29T12:28:14;11.97;;;6.93;;
13969;SDS011;7057;49.984;8.404;2022-10-29T12:30:50;11.30;;;6.87;;
13969;SDS011;7057;49.984;8.404;2022-10-29T12:33:34;11.23;;;6.20;;
13969;SDS011;7057;49.984;8.404;2022-10-29T12:36:09;10.83;;;6.70;;
13969;SDS011;7057;49.984;8.404;2022-10-29T12:38:46;10.40;;;6.60;;
13969;SDS011;7057;49.984;8.404;2022-10-29T12:41:18;15.97;;;6.50;;
13969;SDS011;7057;49.984;8.404;2022-10-29T12:43:48;11.33;;;6.33;;
13969;SDS011;7057;49.984;8.404;2022-10-29T12:46:20;10.23;;;6.40;;
13969;SDS011;7057;49.984;8.404;2022-10-29T12:48:57;13.83;;;6.17;;
13969;SDS011;7057;49.984;8.404;2022-10-29T12:51:34;11.30;;;5.97;;
13969;SDS011;7057;49.984;8.404;2022-10-29T12:54:20;9.53;;;6.20;;
13969;SDS011;7057;49.984;8.404;2022-10-29T12:56:53;10.17;;;6.37;;
13969;SDS011;7057;49.984;8.404;2022-10-29T12:59:29;13.83;;;6.20;;
13969;SDS011;7057;49.984;8.404;2022-10-29T13:10:47;10.43;;;6.57;;
13969;SDS011;7057;49.984;8.404;2022-10-29T13:13:19;12.07;;;6.47;;
13969;SDS011;7057;49.984;8.404;2022-10-29T13:16:00;12.33;;;6.67;;
13969;SDS011;7057;49.984;8.404;2022-10-29T13:18:30;9.77;;;7.23;;
13969;SDS011;7057;49.984;8.404;2022-10-29T13:21:10;10.40;;;6.53;;
13969;SDS011;7057;49.984;8.404;2022-10-29T13:23:38;18.33;;;7.53;;
13969;SDS011;7057;49.984;8.404;2022-10-29T13:26:05;12.37;;;6.47;;
13969;SDS011;7057;49.984;8.404;2022-10-29T13:28:44;14.17;;;6.60;;
13969;SDS011;7057;49.984;8.404;2022-10-29T13:43:20;13.37;;;6.87;;
13969;SDS011;7057;49.984;8.404;2022-10-29T13:45:49;12.27;;;6.37;;
13969;SDS011;7057;49.984;8.404;2022-10-29T13:48:27;16.70;;;6.93;;
13969;SDS011;7057;49.984;8.404;2022-10-29T13:50:56;16.00;;;6.70;;
13969;SDS011;7057;49.984;8.404;2022-10-29T13:53:30;12.50;;;6.80;;
13969;SDS011;7057;49.984;8.404;2022-10-29T13:56:05;11.97;;;6.47;;
13969;SDS011;7057;49.984;8.404;2022-10-29T13:58:36;10.13;;;6.63;;
13969;SDS011;7057;49.984;8.404;2022-10-29T14:01:08;10.73;;;6.40;;
13969;SDS011;7057;49.984;8.404;2022-10-29T14:03:40;11.73;;;6.93;;
13969;SDS011;7057;49.984;8.404;2022-10-29T14:06:21;17.57;;;8.33;;
13969;SDS011;7057;49.984;8.404;2022-10-29T14:08:54;9.90;;;6.43;;
13969;SDS011;7057;49.984;8.404;2022-10-29T14:11:27;11.87;;;6.57;;
13969;SDS011;7057;49.984;8.404;2022-10-29T14:14:00;12.27;;;6.37;;
13969;SDS011;7057;49.984;8.404;2022-10-29T14:16:31;11.17;;;6.53;;
13969;SDS011;7057;49.984;8.404;2022-10-29T14:19:11;10.23;;;6.37;;
13969;SDS011;7057;49.984;8.404;2022-10-29T14:21:39;6.70;;;5.80;;
13969;SDS011;7057;49.984;8.404;2022-10-29T14:24:08;15.10;;;7.13;;
13969;SDS011;7057;49.984;8.404;2022-10-29T14:26:40;14.53;;;6.47;;
13969;SDS011;7057;49.984;8.404;2022-10-29T14:29:12;12.90;;;7.00;;
13969;SDS011;7057;49.984;8.404;2022-10-29T14:31:40;13.13;;;6.63;;
13969;SDS011;7057;49.984;8.404;2022-10-29T14:34:12;12.47;;;7.20;;
13969;SDS011;7057;49.984;8.404;2022-10-29T14:36:49;13.03;;;7.07;;
13969;SDS011;7057;49.984;8.404;2022-10-29T14:39:21;11.67;;;6.70;;
13969;SDS011;7057;49.984;8.404;2022-10-29T14:41:51;14.10;;;7.20;;
13969;SDS011;7057;49.984;8.404;2022-10-29T14:44:23;14.93;;;7.20;;
13969;SDS011;7057;49.984;8.404;2022-10-29T14:46:53;14.30;;;7.00;;
13969;SDS011;7057;49.984;8.404;2022-10-29T14:49:26;12.57;;;6.90;;
13969;SDS011;7057;49.984;8.404;2022-10-29T14:51:55;17.03;;;7.47;;
13969;SDS011;7057;49.984;8.404;2022-10-29T14:54:26;11.53;;;7.83;;
13969;SDS011;7057;49.984;8.404;2022-10-29T14:56:56;9.63;;;6.53;;
13969;SDS011;7057;49.984;8.404;2022-10-29T14:59:26;12.83;;;5.67;;
13969;SDS011;7057;49.984;8.404;2022-10-29T15:01:56;17.70;;;7.20;;
13969;SDS011;7057;49.984;8.404;2022-10-29T15:04:26;15.37;;;7.73;;
13969;SDS011;7057;49.984;8.404;2022-10-29T15:06:55;10.70;;;6.57;;
13969;SDS011;7057;49.984;8.404;2022-10-29T15:09:42;12.47;;;6.47;;
13969;SDS011;7057;49.984;8.404;2022-10-29T15:12:16;12.70;;;6.30;;
13969;SDS011;7057;49.984;8.404;2022-10-29T15:14:46;10.60;;;6.13;;
13969;SDS011;7057;49.984;8.404;2022-10-29T15:17:15;19.17;;;8.00;;
13969;SDS011;7057;49.984;8.404;2022-10-29T15:19:46;10.37;;;5.53;;
13969;SDS011;7057;49.984;8.404;2022-10-29T15:22:17;14.00;;;6.87;;
13969;SDS011;7057;49.984;8.404;2022-10-29T15:24:48;11.20;;;6.17;;
13969;SDS011;7057;49.984;8.404;2022-10-29T15:27:17;10.83;;;6.70;;
13969;SDS011;7057;49.984;8.404;2022-10-29T15:29:46;13.10;;;6.23;;
13969;SDS011;7057;49.984;8.404;2022-10-29T15:32:15;12.17;;;6.47;;
13969;SDS011;7057;49.984;8.404;2022-10-29T15:34:47;11.37;;;6.90;;
13969;SDS011;7057;49.984;8.404;2022-10-29T15:37:20;11.43;;;6.83;;
13969;SDS011;7057;49.984;8.404;2022-10-29T15:42:39;12.37;;;7.30;;